Flight Track Log - Related Links

Times and Time Zones

All times are in EDT time to prevent confusion due to time zone crossing. See the THY2461 flight status page for this flight to view local times or setup timezone preferences in your user account.

Time Position Orientation Groundspeed Altitude Reporting Facility
EDT Latitude Longitude Course Direction KTS MPH feet Rate Location/Type
Fri 06:53:00 AM 37.4160 34.6383 311° West  Level Estimated
Fri 06:54:00 AM 37.4777 34.5460 310° West  Level Estimated
Fri 06:55:00 AM 37.5393 34.4535 310° West  Level Estimated
Fri 06:56:00 AM 37.6009 34.3609 310° West  Level Estimated
Fri 06:57:00 AM 37.6624 34.2681 310° West  Level Estimated
Fri 06:58:00 AM 37.7238 34.1752 310° West  Level Estimated
Fri 06:59:00 AM 37.7851 34.0821 310° West  Level Estimated
Fri 07:00:00 AM 37.8464 33.9888 310° West  Level Estimated
Fri 07:01:00 AM 37.9076 33.8954 310° West  Level Estimated
Fri 07:02:00 AM 37.9687 33.8019 310° West  Level Estimated
Fri 07:03:00 AM 38.0297 33.7081 310° West  Level Estimated
Fri 07:04:00 AM 38.0907 33.6143 310° West  Level Estimated
Fri 07:05:00 AM 38.1516 33.5202 309° West  Level Estimated
Fri 07:06:00 AM 38.2124 33.4261 309° West  Level Estimated
Fri 07:07:00 AM 38.2731 33.3317 309° West  Level Estimated
Fri 07:08:00 AM 38.3338 33.2372 309° West  Level Estimated
Fri 07:09:00 AM 38.3944 33.1426 309° West  Level Estimated
Fri 07:10:00 AM 38.4549 33.0477 309° West  Level Estimated
Fri 07:11:00 AM 38.5153 32.9528 309° West  Level Estimated
Fri 07:12:00 AM 38.5757 32.8576 309° West  Level Estimated
Fri 07:13:00 AM 38.6359 32.7623 309° West  Level Estimated
Fri 07:14:00 AM 38.6962 32.6669 309° West  Level Estimated
Fri 07:15:00 AM 38.7563 32.5713 309° West  Level Estimated
Fri 07:16:00 AM 38.8163 32.4755 309° West  Level Estimated
Fri 07:17:00 AM 38.8763 32.3796 309° West  Level Estimated
Fri 07:18:00 AM 38.9362 32.2835 309° West  Level Estimated
Fri 07:19:00 AM 38.9960 32.1872 309° West  Level Estimated
Fri 07:20:00 AM 39.0557 32.0908 309° West  Level Estimated
Fri 07:21:00 AM 39.1154 31.9942 309° West  Level Estimated
Fri 07:22:00 AM 39.1749 31.8974 308° West  Level Estimated
Fri 07:23:00 AM 39.2344 31.8005 308° West  Level Estimated
Fri 07:24:00 AM 39.2938 31.7034 308° West  Level Estimated
Fri 07:25:00 AM 39.3532 31.6062 308° West  Level Estimated
Fri 07:26:00 AM 39.4124 31.5088 308° West  Level Estimated
Fri 07:27:00 AM 39.4716 31.4112 308° West  Level Estimated
Fri 07:28:00 AM 39.5307 31.3134 308° West  Level Estimated
Fri 07:29:00 AM 39.5897 31.2155 308° West  Level Estimated
Fri 07:30:00 AM 39.6486 31.1175 308° West  Level Estimated
Fri 07:31:00 AM 39.7075 31.0192 308° West  Level Estimated
Fri 07:32:00 AM 39.7662 30.9208 308° West  Level Estimated
Fri 07:33:00 AM 39.8249 30.8222 308° West  Level Estimated
Fri 07:34:00 AM 39.8835 30.7235 308° West  Level Estimated
Fri 07:35:00 AM 39.9420 30.6246 308° West  Level Estimated
Fri 07:36:00 AM 40.0004 30.5255 308° West  Level Estimated
Fri 07:37:00 AM 40.0588 30.4262 308° West  Level Estimated
Fri 07:38:00 AM 40.1170 30.3268 307° West  Level Estimated
Fri 07:39:00 AM 40.1752 30.2272 307° West  Level Estimated
Fri 07:40:00 AM 40.2332 30.1275 307° West  Level Estimated
Fri 07:41:00 AM 40.2912 30.0275 307° West  Level Estimated
Fri 07:42:00 AM 40.3492 29.9274 307° West  Level Estimated
Fri 07:43:00 AM 40.4070 29.8271 307° West  Level Estimated
Fri 07:44:00 AM 40.4647 29.7267 307° West  Level Estimated
Fri 07:45:00 AM 40.5224 29.6261 307° West  Level Estimated
Fri 07:46:00 AM 40.5799 29.5253 307° West  Level Estimated
Fri 07:47:00 AM 40.6374 29.4243 307° West  Level Estimated
Fri 07:48:00 AM 40.6948 29.3231 307° West  Level Estimated
Fri 07:49:00 AM 40.7521 29.2218 307° West  Level Estimated
Fri 07:50:00 AM 40.8093 29.1203 307° West  Level Estimated
Fri 07:51:00 AM 40.8664 29.0187 307° West  Level Estimated
Fri 07:52:00 AM 40.9235 28.9168 307° West  Level Estimated
Fri 07:53:00 AM 40.9769 28.8211 306° West  Level Estimated
Fri 07:54:00 AM 40.9769 28.8211 21° North  Level Estimated
Fri 07:55:00 AM 40.9769 28.8211 21° North  Level Estimated
Fri 07:56:00 AM 40.9769 28.8211 21° North  Level Estimated
Fri 07:57:00 AM 40.9769 28.8211 21° North  Level Estimated
Fri 07:58:00 AM 40.9769 28.8211 21° North  Level Estimated
Fri 07:59:00 AM 40.9769 28.8211 21° North  Level Estimated
Fri 08:00:00 AM 40.9769 28.8211 21° North  Level Estimated
Fri 08:01:00 AM 40.9769 28.8211 21° North  Level Estimated
Fri 08:02:00 AM 40.9769 28.8211 21° North  Level Estimated
Fri 08:03:00 AM 40.9769 28.8211 21° North  Level Estimated
Fri 08:04:00 AM 40.9769 28.8211 21° North  Level Estimated
Fri 08:05:00 AM 40.9769 28.8211 21° North  Level Estimated
Fri 08:06:00 AM 40.9769 28.8211 21° North  Level Estimated
Fri 08:07:00 AM 40.9769 28.8211 21° North  Level Estimated
Fri 08:08:00 AM 40.9769 28.8211 21° North  Level Estimated

Login

Don't have an account? Register now (free) for customized features, flight alerts, and more!